Terminal Aerodrome Forecast
Issued by NWS Goodland, KS

Home | Current Version | Previous Version | Text Only | Print | Product List | Glossary On
Versions: 1 2 3 4 5 6 7 8 9 10 11 12 13 14 15 16
000
FTUS43 KGLD 190500
TAFGLD
TAF
KGLD 190520Z 1906/2006 17020KT P6SM BKN200
     FM191000 18015KT P6SM BKN150
     FM191200 21012KT P6SM BKN150
     FM191500 34014KT P6SM BKN120
     FM192000 03012KT P6SM SCT040 OVC120 PROB30 1921/2003 -TSRA
      BKN040CB
     FM200300 05008KT P6SM -TSRA SCT040CB OVC100=

USA.gov is the U.S. government's official web portal to all federal, state and local government web resources and services.